Time;durP1;ratioP1;P1;durP2;ratioP2;P2;SDS_P1;SDS_P2;PMS_P1;PMS_P2;Temp;Humidity;BMP_temperature;BMP_pressure;BME280_temperature;BME280_humidity;BME280_pressure;Samples;Min_cycle;Max_cycle;Signal;HPM_P1;HPM_P2
2022/07/06 00:00:39;;;;;;;6.95;1.40;;;16.90;99.90;;;;;;6191179;28;20278;-67
2022/07/06 00:03:46;;;;;;;5.28;1.33;;;16.90;99.90;;;;;;6189334;28;20293;-67
2022/07/06 00:06:58;;;;;;;11.10;1.50;;;16.90;99.90;;;;;;6166745;29;20275;-67
2022/07/06 00:10:05;;;;;;;11.23;1.73;;;16.70;99.90;;;;;;6166786;29;20302;-67
2022/07/06 00:13:11;;;;;;;11.55;1.30;;;16.80;99.90;;;;;;6166637;29;20283;-67
2022/07/06 00:16:17;;;;;;;15.90;1.35;;;16.70;99.90;;;;;;6165754;28;20271;-67
2022/07/06 00:19:24;;;;;;;23.83;2.20;;;16.70;99.90;;;;;;6166897;29;20274;-67
2022/07/06 00:22:29;;;;;;;21.92;2.40;;;16.80;99.90;;;;;;6166290;29;20663;-67
2022/07/06 00:25:34;;;;;;;21.30;2.38;;;16.70;99.90;;;;;;6166726;29;20551;-67
2022/07/06 00:28:40;;;;;;;10.98;2.03;;;16.60;99.90;;;;;;6166656;29;20274;-67
2022/07/06 00:31:45;;;;;;;11.98;2.42;;;16.60;99.90;;;;;;6165253;29;20278;-67
2022/07/06 00:34:51;;;;;;;7.22;1.60;;;16.60;99.90;;;;;;6165178;29;20295;-67
2022/07/06 00:38:00;;;;;;;10.27;2.20;;;16.60;99.90;;;;;;6166355;29;20442;-67
2022/07/06 00:41:05;;;;;;;11.65;1.85;;;16.60;99.90;;;;;;6165918;29;20279;-67
2022/07/06 00:44:11;;;;;;;7.78;1.35;;;16.50;99.90;;;;;;6165052;29;20471;-67
2022/07/06 00:47:17;;;;;;;15.07;1.50;;;16.40;99.90;;;;;;6149174;29;20279;-67
2022/07/06 00:50:25;;;;;;;10.95;1.70;;;16.30;99.90;;;;;;6166106;29;20274;-67
2022/07/06 00:53:30;;;;;;;17.35;1.58;;;16.30;99.90;;;;;;6166133;29;20279;-67
2022/07/06 00:56:36;;;;;;;29.25;2.35;;;16.30;99.90;;;;;;6166216;28;20549;-67
2022/07/06 00:59:41;;;;;;;7.05;1.38;;;16.30;99.90;;;;;;6165750;28;20578;-67
2022/07/06 01:02:47;;;;;;;7.85;1.60;;;16.30;99.90;;;;;;6166060;29;20298;-67
2022/07/06 01:05:54;;;;;;;11.43;1.50;;;16.10;99.90;;;;;;6174791;28;20266;-67
2022/07/06 01:09:00;;;;;;;10.80;1.83;;;16.10;99.90;;;;;;6164723;28;20278;-67
2022/07/06 01:12:07;;;;;;;11.32;1.48;;;16.20;99.90;;;;;;6188971;28;20637;-67
2022/07/06 01:15:14;;;;;;;9.75;1.30;;;16.10;99.90;;;;;;6189305;28;20464;-67
2022/07/06 01:18:20;;;;;;;3.55;1.50;;;16.10;99.90;;;;;;6189549;28;20548;-67
2022/07/06 01:21:27;;;;;;;13.07;1.40;;;16.00;99.90;;;;;;6188948;28;20270;-67
2022/07/06 01:24:33;;;;;;;6.30;1.20;;;16.00;99.90;;;;;;6189185;28;20293;-67
2022/07/06 01:27:39;;;;;;;6.75;1.50;;;16.00;99.90;;;;;;6171878;28;20274;-67
2022/07/06 01:30:44;;;;;;;11.02;1.35;;;16.10;99.90;;;;;;6171741;28;20273;-67
2022/07/06 01:33:50;;;;;;;9.32;1.80;;;16.00;99.90;;;;;;6188905;28;20282;-67
2022/07/06 01:36:57;;;;;;;4.18;1.80;;;16.00;99.90;;;;;;6188472;28;20286;-67
2022/07/06 01:40:06;;;;;;;9.57;1.88;;;16.00;99.90;;;;;;6171657;28;20432;-67
2022/07/06 01:43:15;;;;;;;5.43;1.88;;;15.90;99.90;;;;;;6188814;28;20295;-67
2022/07/06 01:46:20;;;;;;;9.63;1.70;;;15.90;99.90;;;;;;6171730;28;20289;-67
2022/07/06 01:49:26;;;;;;;7.07;2.13;;;15.90;99.90;;;;;;6188694;28;20286;-67
2022/07/06 01:52:33;;;;;;;5.18;2.08;;;15.90;99.90;;;;;;6188689;28;20274;-67
2022/07/06 01:55:40;;;;;;;8.18;2.00;;;15.90;99.90;;;;;;6171033;28;20278;-67
2022/07/06 01:58:46;;;;;;;4.50;1.52;;;15.90;99.90;;;;;;6171580;28;20585;-67
2022/07/06 02:01:51;;;;;;;5.30;2.28;;;15.90;99.90;;;;;;6171214;28;20456;-67
2022/07/06 02:04:57;;;;;;;6.85;2.15;;;15.80;99.90;;;;;;6159723;29;20488;-67
2022/07/06 02:08:04;;;;;;;8.25;2.25;;;15.80;99.90;;;;;;6164566;29;20459;-67
2022/07/06 02:11:12;;;;;;;1.92;1.80;;;15.70;99.90;;;;;;6171330;28;20331;-67
2022/07/06 02:14:19;;;;;;;5.55;2.50;;;15.70;99.90;;;;;;6179150;28;20277;-67
2022/07/06 02:17:26;;;;;;;3.88;2.10;;;15.70;99.90;;;;;;6178857;28;20570;-67
2022/07/06 02:20:31;;;;;;;9.45;2.50;;;15.70;99.90;;;;;;6164486;28;20282;-67
2022/07/06 02:23:38;;;;;;;3.60;1.90;;;15.60;99.90;;;;;;6164231;28;20298;-67
2022/07/06 02:26:43;;;;;;;4.93;1.88;;;15.60;99.90;;;;;;6164191;28;20610;-67
2022/07/06 02:29:49;;;;;;;6.82;1.83;;;15.60;99.90;;;;;;6178846;28;20274;-67
2022/07/06 02:32:54;;;;;;;14.60;2.30;;;15.70;99.90;;;;;;6178925;28;20278;-67
2022/07/06 02:35:59;;;;;;;8.73;2.10;;;15.60;99.90;;;;;;6178805;28;20285;-67
2022/07/06 02:39:06;;;;;;;3.17;2.28;;;15.60;99.90;;;;;;6181038;28;20595;-67
2022/07/06 02:42:12;;;;;;;8.50;1.98;;;15.60;99.90;;;;;;6183554;28;20557;-67
2022/07/06 02:45:17;;;;;;;1.85;1.70;;;15.60;99.90;;;;;;6167914;29;20294;-67
2022/07/06 02:48:22;;;;;;;10.40;2.00;;;15.50;99.90;;;;;;6168986;28;20578;-67
2022/07/06 02:51:29;;;;;;;7.28;1.60;;;15.50;99.90;;;;;;6183437;28;20293;-67
2022/07/06 02:54:36;;;;;;;3.30;2.20;;;15.60;99.90;;;;;;6168464;29;20282;-67
2022/07/06 02:57:41;;;;;;;4.78;1.90;;;15.50;99.90;;;;;;6168399;28;20279;-67
2022/07/06 03:00:47;;;;;;;2.90;1.50;;;15.50;99.90;;;;;;6183043;28;20278;-67
2022/07/06 03:03:53;;;;;;;5.88;1.80;;;15.50;99.90;;;;;;6183166;28;20303;-67
2022/07/06 03:06:59;;;;;;;2.33;1.50;;;15.50;99.90;;;;;;6168534;28;20289;-67
2022/07/06 03:10:06;;;;;;;4.97;1.70;;;15.60;99.90;;;;;;6174169;28;20305;-67
2022/07/06 03:13:15;;;;;;;5.22;2.03;;;15.60;99.90;;;;;;6175346;28;20273;-67
2022/07/06 03:16:22;;;;;;;6.30;1.38;;;15.60;99.90;;;;;;6174727;28;20278;-67
2022/07/06 03:19:28;;;;;;;2.75;1.40;;;15.50;99.90;;;;;;6175057;28;20298;-67
2022/07/06 03:22:34;;;;;;;5.15;1.83;;;15.60;99.90;;;;;;6174566;28;20278;-67
2022/07/06 03:25:43;;;;;;;2.65;1.40;;;15.60;99.90;;;;;;6174493;28;20294;-67
2022/07/06 03:28:48;;;;;;;5.68;1.70;;;15.60;99.90;;;;;;6174330;28;20274;-67
2022/07/06 03:31:56;;;;;;;6.43;1.60;;;15.60;99.90;;;;;;6174790;28;20273;-67
2022/07/06 03:35:02;;;;;;;5.60;1.30;;;15.60;99.90;;;;;;6174276;28;20277;-67
2022/07/06 03:38:12;;;;;;;5.72;1.33;;;15.60;99.90;;;;;;6175035;28;20273;-67
2022/07/06 03:41:22;;;;;;;1.75;1.50;;;15.60;99.90;;;;;;6174278;28;20278;-67
2022/07/06 03:44:27;;;;;;;6.70;1.50;;;15.60;99.90;;;;;;6191442;28;20298;-67
2022/07/06 03:47:32;;;;;;;9.50;1.30;;;15.70;99.90;;;;;;6173934;28;20553;-67
2022/07/06 03:50:38;;;;;;;3.67;1.67;;;15.70;99.90;;;;;;6173932;28;20273;-67
2022/07/06 03:53:43;;;;;;;3.20;1.45;;;15.70;99.90;;;;;;6173816;28;20425;-67
2022/07/06 03:56:50;;;;;;;7.45;1.60;;;15.80;99.90;;;;;;6173895;28;20278;-67
2022/07/06 03:59:56;;;;;;;1.25;1.25;;;15.80;99.90;;;;;;6189619;28;20277;-67
2022/07/06 04:03:02;;;;;;;8.20;1.48;;;15.90;99.90;;;;;;6173548;28;20274;-67
2022/07/06 04:06:12;;;;;;;3.15;1.40;;;15.80;99.90;;;;;;6152437;29;20306;-67
2022/07/06 04:09:18;;;;;;;4.85;1.60;;;15.80;99.90;;;;;;6166867;29;20275;-67
2022/07/06 04:12:25;;;;;;;4.35;1.42;;;15.70;99.90;;;;;;6166090;28;20274;-67
2022/07/06 04:15:30;;;;;;;4.38;1.50;;;15.80;99.90;;;;;;6167095;28;20578;-67
2022/07/06 04:18:37;;;;;;;3.08;1.38;;;15.80;99.90;;;;;;6165762;29;20365;-67
2022/07/06 04:21:44;;;;;;;2.47;1.60;;;15.90;99.90;;;;;;6165860;28;20274;-67
2022/07/06 04:24:50;;;;;;;3.17;1.20;;;16.00;99.90;;;;;;6165714;29;20294;-67
2022/07/06 04:27:57;;;;;;;5.47;2.00;;;16.00;99.90;;;;;;6165702;28;20275;-67
2022/07/06 04:31:04;;;;;;;3.42;1.48;;;16.00;99.90;;;;;;6165205;29;20279;-67
2022/07/06 04:34:10;;;;;;;5.57;1.55;;;16.00;99.90;;;;;;6164985;29;20274;-67
2022/07/06 04:37:15;;;;;;;4.65;1.50;;;16.00;99.90;;;;;;6165363;28;20581;-67
2022/07/06 04:40:21;;;;;;;5.25;1.40;;;16.00;99.90;;;;;;6165523;28;20273;-67
2022/07/06 04:43:31;;;;;;;2.67;1.48;;;16.00;99.90;;;;;;6165364;28;20274;-67
2022/07/06 04:46:37;;;;;;;11.10;1.42;;;16.10;99.90;;;;;;6165049;29;20294;-67
2022/07/06 04:49:42;;;;;;;5.00;1.27;;;16.10;99.90;;;;;;6164945;29;20274;-67
2022/07/06 04:52:47;;;;;;;3.58;1.50;;;16.20;99.90;;;;;;6165205;28;20274;-67
2022/07/06 04:55:53;;;;;;;6.95;1.65;;;16.20;99.90;;;;;;6149282;29;20558;-67
2022/07/06 04:59:00;;;;;;;9.50;2.10;;;16.30;99.90;;;;;;6164591;29;20582;-67
2022/07/06 05:02:06;;;;;;;5.60;1.40;;;16.50;99.90;;;;;;6165000;28;20460;-67
2022/07/06 05:05:12;;;;;;;5.18;1.60;;;16.50;99.90;;;;;;6169804;28;20270;-67
2022/07/06 05:08:18;;;;;;;7.28;1.40;;;16.50;99.90;;;;;;6164375;29;20278;-67
2022/07/06 05:11:23;;;;;;;5.45;1.67;;;16.70;99.90;;;;;;6183207;28;20309;-67
2022/07/06 05:14:31;;;;;;;7.47;1.50;;;16.70;99.90;;;;;;6172178;28;20273;-67
2022/07/06 05:17:36;;;;;;;7.70;1.50;;;16.80;99.90;;;;;;6189429;28;20274;-67
2022/07/06 05:20:44;;;;;;;5.38;1.20;;;16.80;99.90;;;;;;6171975;28;20274;-67
2022/07/06 05:23:49;;;;;;;2.95;1.58;;;16.80;99.90;;;;;;6172114;28;20278;-67
2022/07/06 05:26:55;;;;;;;5.57;1.63;;;16.90;99.90;;;;;;6171887;28;20488;-67
2022/07/06 05:30:01;;;;;;;4.57;1.50;;;17.10;99.90;;;;;;6189178;28;20285;-67
2022/07/06 05:33:12;;;;;;;3.95;1.42;;;17.40;99.90;;;;;;6171699;28;20274;-67
2022/07/06 05:36:18;;;;;;;3.65;1.40;;;17.70;99.90;;;;;;6171674;28;20565;-67
2022/07/06 05:39:23;;;;;;;1.98;1.30;;;18.00;99.90;;;;;;6171131;28;20277;-67
2022/07/06 05:42:30;;;;;;;4.15;1.70;;;18.20;99.90;;;;;;6188355;28;20274;-67
2022/07/06 05:45:37;;;;;;;5.07;1.40;;;18.10;99.90;;;;;;6171141;28;20278;-67
2022/07/06 05:52:06;;;;;;;2.95;1.40;;;18.50;99.90;;;;;;6171348;28;20577;-67
2022/07/06 05:55:12;;;;;;;3.22;1.48;;;18.60;99.90;;;;;;6188152;28;20525;-67
2022/07/06 05:58:20;;;;;;;4.32;1.48;;;18.70;99.90;;;;;;6170964;28;20294;-66
2022/07/06 06:01:28;;;;;;;3.45;1.70;;;19.00;99.90;;;;;;6171166;28;20278;-67
2022/07/06 06:04:44;;;;;;;2.05;1.30;;;18.90;99.90;;;;;;6161616;29;20266;-67
2022/07/06 06:07:51;;;;;;;7.28;2.00;;;18.90;99.90;;;;;;6163443;28;20294;-67
2022/07/06 06:10:58;;;;;;;4.70;1.40;;;18.90;99.90;;;;;;6169364;28;20307;-67
2022/07/06 06:14:06;;;;;;;3.90;1.88;;;19.10;99.90;;;;;;6178629;28;20454;-67
2022/07/06 06:17:13;;;;;;;3.85;1.20;;;19.10;99.90;;;;;;6178853;28;20278;-67
2022/07/06 06:20:18;;;;;;;1.55;1.35;;;19.00;99.90;;;;;;6164625;28;20274;-67
2022/07/06 06:23:24;;;;;;;3.08;1.40;;;18.90;99.90;;;;;;6164438;28;20465;-67
2022/07/06 06:26:29;;;;;;;2.55;1.15;;;18.70;99.90;;;;;;6164304;28;20290;-67
2022/07/06 06:29:34;;;;;;;4.35;1.40;;;18.80;99.90;;;;;;6163859;28;20282;-67
2022/07/06 06:32:41;;;;;;;1.95;1.65;;;19.10;99.90;;;;;;6164451;28;20296;-67
2022/07/06 06:35:49;;;;;;;4.53;1.48;;;19.30;99.90;;;;;;6164609;28;20274;-67
2022/07/06 06:38:54;;;;;;;5.45;1.40;;;19.30;99.90;;;;;;6164314;28;20467;-67
2022/07/06 06:42:01;;;;;;;7.18;1.60;;;19.20;99.90;;;;;;6164242;28;20275;-67
2022/07/06 06:45:11;;;;;;;5.43;1.20;;;19.30;99.90;;;;;;6178738;28;20278;-67
2022/07/06 06:48:19;;;;;;;6.97;1.73;;;19.30;99.90;;;;;;6163908;28;20294;-67
2022/07/06 06:51:24;;;;;;;5.63;1.50;;;19.30;99.90;;;;;;6163430;28;20270;-67
2022/07/06 06:54:30;;;;;;;4.78;1.25;;;19.60;99.90;;;;;;6163931;28;20274;-67
2022/07/06 06:57:35;;;;;;;2.42;1.40;;;19.80;99.90;;;;;;6163848;28;20283;-67
2022/07/06 07:00:40;;;;;;;2.65;1.20;;;19.60;99.90;;;;;;6163928;28;20468;-67
2022/07/06 07:03:47;;;;;;;6.03;1.50;;;19.60;99.90;;;;;;6163566;28;20279;-67
2022/07/06 07:06:52;;;;;;;2.47;1.40;;;19.50;99.90;;;;;;6163229;28;20275;-68
2022/07/06 07:09:57;;;;;;;4.47;1.50;;;19.70;99.90;;;;;;6169451;28;20305;-68
2022/07/06 07:13:03;;;;;;;1.50;1.20;;;19.70;99.90;;;;;;6187622;28;20277;-67
2022/07/06 07:16:09;;;;;;;2.83;1.20;;;19.70;99.90;;;;;;6187361;28;20277;-67
2022/07/06 07:19:17;;;;;;;2.90;2.17;;;19.70;99.90;;;;;;6187733;28;20214;-67
2022/07/06 07:22:22;;;;;;;2.30;1.33;;;19.70;99.90;;;;;;6187148;28;20581;-67
2022/07/06 07:25:28;;;;;;;1.27;1.27;;;19.70;99.90;;;;;;6189999;28;20477;-68
2022/07/06 07:28:33;;;;;;;8.93;1.30;;;19.60;99.90;;;;;;6191811;28;20289;-67
2022/07/06 07:31:38;;;;;;;3.67;1.40;;;19.40;99.90;;;;;;6191696;28;20273;-67
2022/07/06 07:34:45;;;;;;;3.20;1.48;;;19.30;99.90;;;;;;6191378;28;20274;-67
2022/07/06 07:37:50;;;;;;;2.63;1.30;;;19.30;99.90;;;;;;6191174;28;20469;-67
2022/07/06 07:40:55;;;;;;;4.43;1.85;;;19.30;99.90;;;;;;6191148;28;20452;-67
2022/07/06 07:44:01;;;;;;;1.70;1.52;;;19.40;99.90;;;;;;6191505;28;20302;-66
2022/07/06 07:47:07;;;;;;;2.60;1.50;;;19.60;99.90;;;;;;6191144;28;20274;-67
2022/07/06 07:50:14;;;;;;;7.30;1.42;;;19.80;99.90;;;;;;6190799;28;20277;-67
2022/07/06 07:53:20;;;;;;;1.73;1.17;;;19.80;99.90;;;;;;6191249;28;20278;-67
2022/07/06 07:56:25;;;;;;;4.05;1.10;;;19.90;98.80;;;;;;6191015;28;20278;-67
2022/07/06 07:59:30;;;;;;;1.67;1.10;;;19.90;98.60;;;;;;6173852;28;20286;-67
2022/07/06 08:02:35;;;;;;;1.00;1.00;;;20.00;98.50;;;;;;6173701;28;20273;-67
2022/07/06 08:05:42;;;;;;;4.88;1.35;;;20.00;98.40;;;;;;6174003;28;20266;-67
2022/07/06 08:08:47;;;;;;;5.88;1.20;;;20.00;98.50;;;;;;6166927;29;20314;-67
2022/07/06 08:11:52;;;;;;;4.95;1.73;;;20.00;98.50;;;;;;6166347;29;20306;-67
2022/07/06 08:14:58;;;;;;;1.17;1.17;;;20.20;98.30;;;;;;6167220;28;20318;-67
2022/07/06 08:18:04;;;;;;;2.33;1.30;;;20.30;97.80;;;;;;6166582;29;20565;-67
2022/07/06 08:21:12;;;;;;;2.00;1.15;;;20.40;98.30;;;;;;6166631;28;20274;-67
2022/07/06 08:24:33;;;;;;;4.10;1.48;;;20.40;98.30;;;;;;6166522;28;20271;-67
2022/07/06 08:27:38;;;;;;;1.35;1.20;;;20.40;97.70;;;;;;6166677;29;20291;-67
2022/07/06 08:30:45;;;;;;;1.23;1.10;;;20.40;98.00;;;;;;6166183;29;20549;-67
2022/07/06 08:33:52;;;;;;;1.13;1.00;;;20.50;97.40;;;;;;6166198;29;20578;-67
2022/07/06 08:36:59;;;;;;;2.95;1.10;;;20.70;96.60;;;;;;6165074;28;20517;-67
2022/07/06 08:40:07;;;;;;;1.67;1.58;;;20.60;97.30;;;;;;6165866;29;20278;-67
2022/07/06 08:43:14;;;;;;;4.38;1.85;;;20.60;97.10;;;;;;6165670;29;20339;-67
2022/07/06 08:46:20;;;;;;;2.50;2.40;;;20.60;97.30;;;;;;6165904;29;20565;-67
2022/07/06 08:49:26;;;;;;;3.95;1.60;;;20.50;96.10;;;;;;6165977;29;20293;-67
2022/07/06 08:52:34;;;;;;;3.15;1.05;;;20.30;96.70;;;;;;6166048;29;20267;-67
2022/07/06 08:55:40;;;;;;;3.58;1.00;;;20.50;96.20;;;;;;6165414;29;20274;-67
2022/07/06 08:58:45;;;;;;;2.47;1.20;;;20.50;96.50;;;;;;6165811;29;20283;-67
2022/07/06 09:01:50;;;;;;;3.25;1.95;;;20.40;96.70;;;;;;6165935;28;20274;-67
2022/07/06 09:04:57;;;;;;;6.78;6.18;;;20.40;96.30;;;;;;6165250;29;20279;-66
2022/07/06 09:08:05;;;;;;;6.82;3.63;;;20.40;96.10;;;;;;6165527;28;20278;-67
2022/07/06 09:11:10;;;;;;;2.78;2.10;;;20.40;96.40;;;;;;6180399;28;20693;-67
2022/07/06 09:14:15;;;;;;;1.65;1.35;;;20.50;96.40;;;;;;6189215;28;20273;-67
2022/07/06 09:17:20;;;;;;;2.33;1.10;;;20.60;96.20;;;;;;6189177;28;20273;-67
2022/07/06 09:20:26;;;;;;;1.25;1.25;;;20.60;95.50;;;;;;6188858;28;20282;-67
2022/07/06 09:23:33;;;;;;;3.10;1.40;;;20.70;96.60;;;;;;6189166;28;20330;-67
2022/07/06 09:26:39;;;;;;;1.77;1.20;;;20.60;95.50;;;;;;6188863;28;20445;-67
2022/07/06 09:29:46;;;;;;;4.68;1.60;;;20.50;95.60;;;;;;6188804;28;20290;-67
2022/07/06 09:32:53;;;;;;;1.63;1.25;;;20.50;95.50;;;;;;6189049;28;20273;-67
2022/07/06 09:36:01;;;;;;;2.15;1.42;;;20.50;95.50;;;;;;6188773;28;20467;-67
2022/07/06 09:39:22;;;;;;;4.38;1.50;;;20.30;95.40;;;;;;6188538;28;20282;-67
2022/07/06 09:42:27;;;;;;;1.75;1.20;;;20.30;96.00;;;;;;6188663;28;20274;-67
2022/07/06 09:45:36;;;;;;;5.93;1.10;;;20.30;95.50;;;;;;6188117;28;20274;-67
2022/07/06 09:48:42;;;;;;;1.83;1.17;;;20.40;95.20;;;;;;6188112;28;20270;-67
2022/07/06 09:51:48;;;;;;;3.30;1.10;;;20.40;95.20;;;;;;6171397;28;20297;-67
2022/07/06 09:54:54;;;;;;;3.75;1.10;;;20.60;95.60;;;;;;6188336;28;20274;-67
2022/07/06 09:58:00;;;;;;;3.00;1.20;;;20.70;95.70;;;;;;6188432;28;20277;-67
2022/07/06 10:01:05;;;;;;;4.90;1.30;;;21.00;95.10;;;;;;6188428;28;20277;-67
2022/07/06 10:04:13;;;;;;;2.10;1.23;;;20.80;93.90;;;;;;6182772;28;20336;-67
2022/07/06 10:07:19;;;;;;;2.10;1.23;;;20.90;95.40;;;;;;6164639;28;20274;-67
2022/07/06 10:10:27;;;;;;;2.55;1.20;;;21.00;94.70;;;;;;6164427;28;20313;-67
2022/07/06 10:13:33;;;;;;;6.18;1.60;;;21.10;94.40;;;;;;6164273;29;20271;-67
2022/07/06 10:16:39;;;;;;;2.03;1.50;;;21.00;94.50;;;;;;6163979;29;20270;-67
2022/07/06 10:19:45;;;;;;;2.05;1.75;;;20.90;95.20;;;;;;6164342;29;20278;-67
2022/07/06 10:22:51;;;;;;;2.80;1.45;;;20.70;94.20;;;;;;6163392;29;20274;-67
2022/07/06 10:25:58;;;;;;;2.58;1.50;;;20.70;94.90;;;;;;6164228;29;20278;-67
2022/07/06 10:29:06;;;;;;;2.08;1.50;;;20.70;96.00;;;;;;6163708;29;20270;-67
2022/07/06 10:32:11;;;;;;;2.65;1.20;;;20.80;96.30;;;;;;6163256;29;20486;-68
2022/07/06 10:35:18;;;;;;;1.00;1.00;;;20.80;95.20;;;;;;6163597;29;20274;-67
2022/07/06 10:38:32;;;;;;;2.33;1.30;;;20.90;95.00;;;;;;6163412;29;20295;-67
2022/07/06 10:41:38;;;;;;;1.58;1.25;;;21.00;94.80;;;;;;6163509;29;20278;-67
2022/07/06 10:44:46;;;;;;;1.55;1.08;;;20.90;94.80;;;;;;6163951;28;20461;-67
2022/07/06 10:48:18;;;;;;;2.17;1.00;;;20.80;95.10;;;;;;6164004;29;20293;-67
2022/07/06 10:51:25;;;;;;;1.38;1.00;;;20.70;94.30;;;;;;6163260;29;20310;-67
2022/07/06 10:54:40;;;;;;;1.95;0.93;;;20.80;94.60;;;;;;6163796;29;20270;-68
2022/07/06 10:57:54;;;;;;;3.88;1.10;;;20.80;94.20;;;;;;6163416;29;20275;-67
2022/07/06 11:01:00;;;;;;;1.60;1.35;;;20.90;94.30;;;;;;6167234;29;20286;-67
2022/07/06 11:04:08;;;;;;;1.30;1.17;;;21.00;94.70;;;;;;6168418;29;20267;-67
2022/07/06 11:07:15;;;;;;;1.33;1.20;;;20.90;95.30;;;;;;6168288;28;20279;-67
2022/07/06 11:10:24;;;;;;;3.97;1.50;;;20.90;95.40;;;;;;6176645;28;20305;-67
2022/07/06 11:13:30;;;;;;;2.25;1.40;;;21.00;95.40;;;;;;6191447;28;20274;-67
2022/07/06 11:16:38;;;;;;;2.58;1.33;;;21.20;95.20;;;;;;6191693;28;20273;-67
2022/07/06 11:19:51;;;;;;;2.97;1.50;;;21.30;94.30;;;;;;6192200;28;20274;-67
2022/07/06 11:22:56;;;;;;;2.25;1.20;;;21.30;94.70;;;;;;6192061;28;20278;-67
2022/07/06 11:26:02;;;;;;;0.90;0.88;;;21.30;94.70;;;;;;6192106;28;20557;-67
2022/07/06 11:29:11;;;;;;;4.00;1.42;;;21.10;94.30;;;;;;6192003;28;20275;-67
2022/07/06 11:32:16;;;;;;;0.93;0.90;;;21.20;93.50;;;;;;6191360;28;20294;-67
2022/07/06 11:35:22;;;;;;;2.90;0.90;;;21.20;92.80;;;;;;6191557;28;20274;-67
2022/07/06 11:38:28;;;;;;;0.95;0.95;;;21.10;92.60;;;;;;6191238;28;20553;-67
2022/07/06 11:41:34;;;;;;;4.25;0.80;;;21.10;92.00;;;;;;6191492;28;20567;-67
2022/07/06 11:44:42;;;;;;;0.85;0.70;;;21.10;91.90;;;;;;6191528;28;20278;-67
2022/07/06 11:47:47;;;;;;;3.25;0.90;;;21.20;91.30;;;;;;6191004;28;20306;-67
2022/07/06 11:51:00;;;;;;;0.93;0.93;;;21.30;91.90;;;;;;6190963;28;20313;-67
2022/07/06 11:54:10;;;;;;;1.15;1.02;;;21.40;92.00;;;;;;6191147;28;20451;-67
2022/07/06 11:57:15;;;;;;;1.10;1.00;;;21.50;92.30;;;;;;6190648;28;20274;-67
2022/07/06 12:00:23;;;;;;;1.00;0.88;;;21.60;92.30;;;;;;6190984;28;20278;-67
2022/07/06 12:03:28;;;;;;;1.08;0.80;;;21.70;91.60;;;;;;6190893;28;20278;-68
2022/07/06 12:06:34;;;;;;;1.20;1.10;;;21.60;91.70;;;;;;6191164;28;20277;-68
2022/07/06 12:09:48;;;;;;;3.35;1.30;;;21.60;92.20;;;;;;6190786;28;20306;-68
2022/07/06 12:13:04;;;;;;;1.00;1.00;;;21.60;92.90;;;;;;6190829;28;20293;-68
2022/07/06 12:16:18;;;;;;;1.73;1.73;;;21.70;91.90;;;;;;6190848;28;20277;-68
2022/07/06 12:19:23;;;;;;;1.20;1.20;;;21.70;90.80;;;;;;6190476;28;20457;-68
2022/07/06 12:22:29;;;;;;;1.55;1.15;;;21.60;90.60;;;;;;6190661;28;20294;-68
2022/07/06 12:25:36;;;;;;;1.10;1.10;;;21.60;90.70;;;;;;6190579;28;20278;-68
2022/07/06 12:28:42;;;;;;;1.30;0.88;;;21.60;90.70;;;;;;6190257;28;20293;-68
2022/07/06 12:31:52;;;;;;;1.40;1.30;;;21.80;91.10;;;;;;6189265;28;20293;-68
2022/07/06 12:35:04;;;;;;;2.83;2.80;;;21.90;91.10;;;;;;6189741;28;20273;-68
2022/07/06 12:38:11;;;;;;;0.90;0.90;;;22.00;90.70;;;;;;6190349;28;20274;-68
2022/07/06 12:41:32;;;;;;;2.40;0.90;;;22.00;90.20;;;;;;6189749;28;20273;-68
2022/07/06 12:44:44;;;;;;;3.70;1.33;;;22.30;90.90;;;;;;6189914;28;20379;-68
2022/07/06 12:48:00;;;;;;;0.85;0.82;;;22.30;89.70;;;;;;6189935;28;20407;-68
2022/07/06 12:51:05;;;;;;;0.90;0.90;;;22.50;89.40;;;;;;6189986;28;20273;-68
2022/07/06 12:54:15;;;;;;;0.82;0.82;;;22.50;90.40;;;;;;6189784;28;20294;-68
2022/07/06 12:57:23;;;;;;;1.38;1.27;;;22.30;90.80;;;;;;6189539;28;20306;-68
2022/07/06 13:00:29;;;;;;;5.03;0.90;;;22.40;91.10;;;;;;6189232;28;20294;-68
2022/07/06 13:03:41;;;;;;;1.40;0.93;;;22.40;91.00;;;;;;6188861;28;20277;-68
2022/07/06 13:06:46;;;;;;;0.98;0.90;;;22.50;91.90;;;;;;6165391;29;20274;-68
2022/07/06 13:09:51;;;;;;;5.72;1.23;;;22.40;92.40;;;;;;6165045;29;20306;-68
2022/07/06 13:12:56;;;;;;;5.88;1.30;;;22.50;91.70;;;;;;6165677;28;20330;-68
2022/07/06 13:16:01;;;;;;;1.50;1.10;;;22.50;92.20;;;;;;6164312;28;20569;-68
2022/07/06 13:19:08;;;;;;;1.20;1.10;;;22.60;91.60;;;;;;6165541;28;20278;-68
2022/07/06 13:22:14;;;;;;;1.05;0.77;;;22.70;90.30;;;;;;6164551;28;20278;-68
2022/07/06 13:25:19;;;;;;;6.20;1.50;;;22.70;89.20;;;;;;6165395;28;20279;-68
2022/07/06 13:28:25;;;;;;;4.75;1.35;;;22.70;89.00;;;;;;6164894;29;20275;-68
2022/07/06 13:31:31;;;;;;;2.13;1.10;;;22.80;88.20;;;;;;6164817;29;20270;-68
2022/07/06 13:34:37;;;;;;;4.50;2.05;;;22.70;88.10;;;;;;6164616;29;20294;-68
2022/07/06 13:37:43;;;;;;;2.65;1.00;;;22.60;87.90;;;;;;6164871;29;20486;-68
2022/07/06 13:40:48;;;;;;;2.25;0.80;;;22.60;84.80;;;;;;6164795;29;20278;-68
2022/07/06 13:43:53;;;;;;;2.83;1.00;;;22.40;86.10;;;;;;6164609;28;20458;-67
2022/07/06 13:46:59;;;;;;;0.80;0.80;;;22.40;87.60;;;;;;6164582;29;20314;-67
2022/07/06 13:50:07;;;;;;;2.47;1.30;;;22.20;89.40;;;;;;6164639;28;20279;-67
2022/07/06 13:53:13;;;;;;;3.15;1.30;;;22.00;90.30;;;;;;6164627;29;20298;-67
2022/07/06 13:56:18;;;;;;;9.18;1.90;;;21.70;93.60;;;;;;6164872;28;20278;-68
2022/07/06 13:59:23;;;;;;;10.93;2.13;;;21.10;98.10;;;;;;6164541;28;20274;-67
2022/07/06 14:02:29;;;;;;;1.17;1.02;;;20.60;99.90;;;;;;6164417;29;20560;-67
2022/07/06 14:05:36;;;;;;;4.57;1.10;;;20.30;97.80;;;;;;6164606;29;20266;-67
2022/07/06 14:08:41;;;;;;;3.33;1.65;;;20.20;98.20;;;;;;6164354;29;20274;-68
2022/07/06 14:11:46;;;;;;;6.32;1.73;;;20.10;99.20;;;;;;6184810;28;20301;-68
2022/07/06 14:14:52;;;;;;;3.78;1.63;;;20.10;99.90;;;;;;6188247;28;20289;-66
2022/07/06 14:17:57;;;;;;;2.80;1.38;;;20.00;99.90;;;;;;6187854;28;20273;-67
2022/07/06 14:21:04;;;;;;;3.22;1.23;;;19.90;99.90;;;;;;6188305;28;20271;-67
2022/07/06 14:24:10;;;;;;;1.55;1.33;;;19.90;99.90;;;;;;6187899;28;20277;-67
2022/07/06 14:27:16;;;;;;;1.35;1.17;;;19.70;99.90;;;;;;6188235;28;20564;-67
2022/07/06 14:30:21;;;;;;;1.90;1.10;;;19.70;99.90;;;;;;6187581;28;20274;-67
2022/07/06 14:33:27;;;;;;;2.78;1.10;;;19.60;99.90;;;;;;6188022;28;20293;-67
2022/07/06 14:36:34;;;;;;;4.78;1.52;;;19.80;99.90;;;;;;6192510;28;20277;-67
2022/07/06 14:39:39;;;;;;;0.90;0.90;;;20.20;99.90;;;;;;6193073;28;20278;-67
2022/07/06 14:42:44;;;;;;;2.88;1.00;;;20.30;99.90;;;;;;6192611;28;20293;-67
2022/07/06 14:45:50;;;;;;;2.35;1.05;;;20.50;99.90;;;;;;6192449;28;20437;-67
2022/07/06 14:48:55;;;;;;;1.10;1.10;;;20.80;99.90;;;;;;6192816;28;20280;-67
2022/07/06 14:52:02;;;;;;;1.10;1.05;;;21.70;99.20;;;;;;6192126;28;20510;-67
2022/07/06 14:55:08;;;;;;;1.13;1.02;;;21.90;96.90;;;;;;6192455;28;20297;-68
2022/07/06 14:58:19;;;;;;;0.90;0.90;;;21.20;97.50;;;;;;6192509;28;20440;-68
2022/07/06 15:01:24;;;;;;;1.27;1.10;;;21.20;98.70;;;;;;6192601;28;20274;-68
2022/07/06 15:04:29;;;;;;;1.55;1.25;;;21.30;99.60;;;;;;6185095;28;20271;-68
2022/07/06 15:07:37;;;;;;;4.15;1.30;;;21.30;99.90;;;;;;6168627;29;20271;-68
2022/07/06 15:10:42;;;;;;;2.25;1.20;;;21.50;99.90;;;;;;6168563;28;20302;-68
2022/07/06 15:13:48;;;;;;;1.10;1.10;;;21.30;99.90;;;;;;6168513;29;20294;-68
2022/07/06 15:16:58;;;;;;;3.50;1.70;;;21.20;99.90;;;;;;6168137;29;20278;-68
2022/07/06 15:20:04;;;;;;;1.27;1.23;;;21.10;99.90;;;;;;6168233;29;20467;-68
2022/07/06 15:23:11;;;;;;;1.15;1.13;;;21.00;99.90;;;;;;6167845;28;20276;-68
2022/07/06 15:26:17;;;;;;;1.45;1.40;;;20.90;99.90;;;;;;6168388;28;20426;-68
2022/07/06 15:29:22;;;;;;;3.83;1.60;;;20.70;99.90;;;;;;6167800;29;20279;-68
2022/07/06 15:32:27;;;;;;;3.60;1.70;;;20.70;99.90;;;;;;6168101;28;20553;-68
2022/07/06 15:35:34;;;;;;;1.80;1.15;;;20.60;99.90;;;;;;6167376;29;20509;-68
2022/07/06 15:38:41;;;;;;;1.92;1.30;;;20.40;99.90;;;;;;6167391;28;20303;-68
2022/07/06 15:41:46;;;;;;;3.83;1.60;;;20.40;99.90;;;;;;6167500;29;20274;-68
2022/07/06 15:44:52;;;;;;;2.53;1.30;;;20.20;99.90;;;;;;6167012;28;20278;-68
2022/07/06 15:47:58;;;;;;;2.10;1.15;;;20.30;99.90;;;;;;6167744;29;20275;-67
2022/07/06 15:51:03;;;;;;;1.13;1.10;;;20.30;99.90;;;;;;6167170;29;20274;-67
2022/07/06 15:54:12;;;;;;;3.05;1.20;;;20.40;99.90;;;;;;6167149;29;20298;-67
2022/07/06 15:57:17;;;;;;;1.60;1.60;;;20.50;99.90;;;;;;6167753;28;20275;-68
2022/07/06 16:00:23;;;;;;;1.52;1.50;;;20.60;99.90;;;;;;6167429;28;20274;-67
2022/07/06 16:03:28;;;;;;;0.98;0.98;;;20.60;99.90;;;;;;6166967;29;20300;-67
2022/07/06 16:06:36;;;;;;;1.00;1.00;;;20.70;99.90;;;;;;6166609;29;20278;-67
2022/07/06 16:10:03;;;;;;;3.47;1.20;;;20.80;99.90;;;;;;6166872;29;20569;-67
2022/07/06 16:13:11;;;;;;;4.20;1.08;;;20.90;99.90;;;;;;6167005;29;20274;-67